Kochki, Russia
Current Conditions -  °F | °C
As of 7:00 PM on Thursday 29 Jan 2015 (Local Time) from UNNT Reporting Station
Clear Clear  
Wind Chill: -5°   Ceiling: Unl
Heat Index: 10°   Visibility: 6mi
Dew Point: -4°   Wind: 13mph
Humidity: 52%   Direction: 190°S
Pressure: 30.45"   Gusts: NA
Location:  54.34°N, 80.48°E
Report Text: UNNT 291200Z 19006MPS CAVOK M12/M20 Q1031 25810160 16810160NOSIG RMK QFE763/1018
Loading
Personal Weather Stations






























Interactive Weather Map New forecast layout! Learn more

10-Day Weather Forecast

Advertisements
Track Severe Weather on mobile